createdAt,value
2022-10-19T00:00:22.043Z,52128.81
2022-10-19T00:02:53.546Z,52156.94
2022-10-19T00:05:25.047Z,52144.48
2022-10-19T00:07:56.547Z,52138.45
2022-10-19T00:10:28.417Z,52135.24
2022-10-19T00:13:00.631Z,52136.04
2022-10-19T00:15:32.167Z,52149.70
2022-10-19T00:18:03.903Z,52151.31
2022-10-19T00:20:35.446Z,52146.09
2022-10-19T00:23:05.742Z,52130.02
2022-10-19T00:25:38.855Z,52138.05
2022-10-19T00:28:10.539Z,52145.69
2022-10-19T00:30:42.115Z,52135.24
2022-10-19T00:33:13.894Z,52143.27
2022-10-19T00:35:48.367Z,52144.07
2022-10-19T00:38:20.596Z,52154.53
2022-10-19T00:40:52.019Z,52145.69
2022-10-19T00:43:25.282Z,52145.69
2022-10-19T00:45:57.234Z,52146.09
2022-10-19T00:48:33.429Z,52150.91
2022-10-19T00:51:05.025Z,52142.07
2022-10-19T00:53:37.841Z,52165.78
2022-10-19T00:56:11.567Z,52165.78
2022-10-19T00:58:43.147Z,52150.11
2022-10-19T01:01:17.957Z,52149.30
2022-10-19T01:03:49.485Z,52161.36
2022-10-19T01:06:21.457Z,52149.30
2022-10-19T01:08:52.820Z,52155.33
2022-10-19T01:11:33.739Z,52135.23
2022-10-19T01:14:14.885Z,52144.88
2022-10-19T01:16:52.079Z,52152.11
2022-10-19T01:19:36.835Z,52137.25
2022-10-19T01:22:12.547Z,52141.66
2022-10-19T01:24:52.157Z,52152.52
2022-10-19T01:27:35.230Z,52140.46
2022-10-19T01:30:09.493Z,52130.41
2022-10-19T01:32:56.295Z,52141.27
2022-10-19T01:35:33.139Z,52155.73
2022-10-19T01:38:16.198Z,52147.29
2022-10-19T01:40:49.966Z,52159.75
2022-10-19T01:43:23.581Z,52149.30
2022-10-19T01:45:55.751Z,52160.15
2022-10-19T01:48:28.702Z,52151.71
2022-10-19T01:51:01.708Z,52149.70
2022-10-19T01:53:36.393Z,52152.52
2022-10-19T01:56:08.363Z,52158.54
2022-10-19T01:58:40.178Z,52142.07
2022-10-19T02:03:43.051Z,52138.05
2022-10-19T02:06:14.559Z,52169.39
2022-10-19T02:08:47.644Z,52166.98
2022-10-19T02:11:19.075Z,52156.54
2022-10-19T02:13:52.648Z,52164.17
2022-10-19T02:16:25.672Z,52166.18
2022-10-19T02:18:57.043Z,52144.07
2022-10-19T02:21:28.965Z,52161.76
2022-10-19T02:24:00.413Z,52154.53
2022-10-19T02:26:31.807Z,52154.93
2022-10-19T02:29:03.685Z,52160.96
2022-10-19T02:31:35.121Z,52158.14
2022-10-19T02:34:06.546Z,52149.30
2022-10-19T02:36:37.937Z,52160.15
2022-10-19T02:39:09.427Z,52142.47
2022-10-19T02:41:43.537Z,52159.35
2022-10-19T02:44:18.523Z,52159.75
2022-10-19T02:46:51.403Z,52149.30
2022-10-19T02:49:22.891Z,52158.54
2022-10-19T02:52:01.783Z,52166.18
2022-10-19T02:54:33.445Z,52164.57
2022-10-19T02:57:04.896Z,52156.54
2022-10-19T02:59:36.728Z,52154.13
2022-10-19T03:02:08.519Z,52167.38
2022-10-19T03:04:42.048Z,52160.96
2022-10-19T03:07:15.117Z,52155.33
2022-10-19T03:09:46.704Z,52185.07
2022-10-19T03:12:17.133Z,52176.63
2022-10-19T03:14:49.080Z,52170.60
2022-10-19T03:17:20.511Z,52162.96
2022-10-19T03:19:52.686Z,52175.42
2022-10-19T03:22:24.379Z,52164.57
2022-10-19T03:24:56.101Z,52165.77
2022-10-19T03:27:27.864Z,52165.38
2022-10-19T03:29:59.410Z,52183.05
2022-10-19T03:32:31.001Z,52173.01
2022-10-19T03:35:02.810Z,52165.77
2022-10-19T03:37:34.621Z,52168.99
2022-10-19T03:40:08.155Z,52177.83
2022-10-19T03:42:39.719Z,52169.79
2022-10-19T03:45:12.878Z,52175.02
2022-10-19T03:47:44.586Z,52169.80
2022-10-19T03:50:17.309Z,52186.68
2022-10-19T03:52:50.057Z,52171.00
2022-10-19T03:55:22.182Z,52176.23
2022-10-19T03:57:53.712Z,52191.90
2022-10-19T04:00:25.731Z,52181.85
2022-10-19T04:02:57.137Z,52191.49
2022-10-19T04:05:27.935Z,52172.61
2022-10-19T04:07:59.558Z,52190.70
2022-10-19T04:10:29.717Z,52189.49
2022-10-19T04:13:01.334Z,52189.89
2022-10-19T04:15:31.614Z,52181.45
2022-10-19T04:18:04.253Z,52201.54
2022-10-19T04:20:36.316Z,52185.07
2022-10-19T04:23:08.004Z,52197.93
2022-10-19T04:25:39.870Z,52191.09
2022-10-19T04:28:11.806Z,52185.06
2022-10-19T04:30:48.396Z,52189.09
2022-10-19T04:33:20.180Z,52185.47
2022-10-19T04:35:52.489Z,52190.29
2022-10-19T04:39:16.412Z,52189.89
2022-10-19T04:42:13.414Z,52193.11
2022-10-19T04:44:45.021Z,52194.71
2022-10-19T04:47:15.019Z,52196.32
2022-10-19T04:49:46.663Z,52189.49
2022-10-19T04:52:18.091Z,52182.65
2022-10-19T04:54:49.389Z,52187.07
2022-10-19T04:57:20.818Z,52195.92
2022-10-19T04:59:52.246Z,52188.68
2022-10-19T05:02:23.996Z,52183.46
2022-10-19T05:04:55.737Z,52185.87
2022-10-19T05:07:27.509Z,52167.79
2022-10-19T05:09:59.255Z,52171.00
2022-10-19T05:12:30.918Z,52181.45
2022-10-19T05:15:02.681Z,52194.31
2022-10-19T05:17:34.910Z,52161.36
2022-10-19T05:20:08.008Z,52163.77
2022-10-19T05:22:40.130Z,52172.21
2022-10-19T05:25:12.445Z,52165.78
2022-10-19T05:27:43.895Z,52173.01
2022-10-19T05:30:15.532Z,52156.13
2022-10-19T05:32:47.591Z,52171.80
2022-10-19T05:35:22.330Z,52172.21
2022-10-19T05:37:58.666Z,52168.59
2022-10-19T05:40:30.225Z,52151.31
2022-10-19T05:43:01.827Z,52151.71
2022-10-19T05:45:33.176Z,52160.96
2022-10-19T05:48:04.729Z,52171.00
2022-10-19T05:50:36.056Z,52148.10
2022-10-19T05:53:06.479Z,52154.13
2022-10-19T05:55:38.966Z,52154.13
2022-10-19T05:58:10.688Z,52133.23
2022-10-19T06:00:42.132Z,52133.63
2022-10-19T06:03:12.680Z,52132.02
2022-10-19T06:05:44.399Z,52139.66
2022-10-19T06:08:16.299Z,52144.48
2022-10-19T06:10:48.141Z,52157.34
2022-10-19T06:13:20.912Z,52140.86
2022-10-19T06:15:54.796Z,52128.80
2022-10-19T06:18:26.780Z,52111.93
2022-10-19T06:20:56.482Z,52140.86
2022-10-19T06:23:28.673Z,52134.84
2022-10-19T06:26:00.255Z,52141.67
2022-10-19T06:28:30.370Z,52119.97
2022-10-19T06:31:04.804Z,52126.80
2022-10-19T06:33:39.130Z,52121.57
2022-10-19T06:36:11.303Z,52135.64
2022-10-19T06:38:43.587Z,52107.91
2022-10-19T06:41:15.517Z,52113.54
2022-10-19T06:43:47.505Z,52115.14
2022-10-19T06:46:20.833Z,52118.36
2022-10-19T06:49:47.316Z,52107.91
2022-10-19T06:52:56.840Z,52097.46
2022-10-19T06:55:28.394Z,52111.53
2022-10-19T06:58:02.181Z,52107.51
2022-10-19T07:00:34.151Z,52101.88
2022-10-19T07:03:04.029Z,52102.68
2022-10-19T07:05:35.663Z,52091.04
2022-10-19T07:08:08.667Z,52100.28
2022-10-19T07:10:41.014Z,52111.13
2022-10-19T07:13:12.523Z,52081.39
2022-10-19T07:15:44.022Z,52090.63
2022-10-19T07:18:15.723Z,52077.38
2022-10-19T07:20:54.819Z,52084.60
2022-10-19T07:23:26.634Z,52071.34
2022-10-19T07:26:01.351Z,52067.73
2022-10-19T07:28:32.826Z,52059.29
2022-10-19T07:31:07.968Z,52065.32
2022-10-19T07:33:39.378Z,52058.09
2022-10-19T07:36:11.630Z,52050.85
2022-10-19T07:38:43.199Z,52068.93
2022-10-19T07:41:15.402Z,52054.87
2022-10-19T07:43:47.433Z,52042.41
2022-10-19T07:46:19.843Z,52042.41
2022-10-19T07:48:51.187Z,52048.84
2022-10-19T07:51:23.092Z,52046.43
2022-10-19T07:53:55.083Z,52049.65
2022-10-19T07:56:27.468Z,52033.17
2022-10-19T07:58:59.909Z,52040.00
2022-10-19T08:01:32.505Z,52032.37
2022-10-19T08:06:55.718Z,52009.06
2022-10-19T08:09:51.522Z,52016.70
2022-10-19T08:12:19.301Z,52004.24
2022-10-19T08:14:49.164Z,51998.61
2022-10-19T08:17:21.062Z,52008.66
2022-10-19T08:19:52.634Z,52003.84
2022-10-19T08:22:24.134Z,52004.24
2022-10-19T08:24:55.595Z,51989.77
2022-10-19T08:27:27.104Z,51987.76
2022-10-19T08:29:58.570Z,51986.16
2022-10-19T08:32:29.925Z,51982.13
2022-10-19T08:35:01.527Z,51958.43
2022-10-19T08:37:44.096Z,51982.94
2022-10-19T08:40:20.566Z,51949.99
2022-10-19T08:42:58.444Z,51949.18
2022-10-19T08:45:46.811Z,51952.80
2022-10-19T08:48:29.260Z,51943.96
2022-10-19T08:51:01.116Z,51952.80
2022-10-19T08:53:39.322Z,51952.80
2022-10-19T08:56:38.884Z,51945.97
2022-10-19T08:59:18.645Z,51933.51
2022-10-19T09:01:52.385Z,51942.76
2022-10-19T09:04:25.516Z,51958.43
2022-10-19T09:07:14.493Z,51939.54
2022-10-19T09:09:48.008Z,51957.22
2022-10-19T09:12:20.758Z,51949.18
2022-10-19T09:14:55.448Z,51941.15
2022-10-19T09:17:34.957Z,51948.78
2022-10-19T09:20:20.088Z,51952.40
2022-10-19T09:22:56.688Z,51942.76
2022-10-19T09:25:29.383Z,51935.13
2022-10-19T09:28:07.798Z,51934.72
2022-10-19T09:30:39.475Z,51929.90
2022-10-19T09:33:15.406Z,51943.96
2022-10-19T09:35:47.809Z,51956.82
2022-10-19T09:38:20.062Z,51937.13
2022-10-19T09:40:51.681Z,51935.12
2022-10-19T09:43:23.198Z,51933.91
2022-10-19T09:45:55.449Z,51927.09
2022-10-19T09:48:30.454Z,51934.72
2022-10-19T09:51:03.411Z,51947.58
2022-10-19T09:53:34.817Z,51930.70
2022-10-19T09:56:08.840Z,51939.54
2022-10-19T09:58:40.333Z,51938.74
2022-10-19T10:01:12.932Z,51941.15
2022-10-19T10:03:44.771Z,51940.75
2022-10-19T10:06:17.796Z,51927.89
2022-10-19T10:08:51.012Z,51942.36
2022-10-19T10:11:28.408Z,51924.68
2022-10-19T10:14:01.004Z,51920.66
2022-10-19T10:16:36.378Z,51927.49
2022-10-19T10:19:09.336Z,51920.25
2022-10-19T10:21:50.113Z,51913.42
2022-10-19T10:24:22.626Z,51903.77
2022-10-19T10:26:55.603Z,51906.59
2022-10-19T10:29:28.473Z,51895.34
2022-10-19T10:32:02.252Z,51902.57
2022-10-19T10:34:49.799Z,51891.32
2022-10-19T10:37:23.553Z,51886.10
2022-10-19T10:39:57.919Z,51888.91
2022-10-19T10:42:35.212Z,51877.26
2022-10-19T10:45:11.449Z,51882.48
2022-10-19T10:47:43.895Z,51880.87
2022-10-19T10:50:21.079Z,51861.99
2022-10-19T10:53:03.076Z,51873.64
2022-10-19T10:55:34.835Z,51871.63
2022-10-19T10:58:16.843Z,51879.67
2022-10-19T11:00:46.659Z,51857.97
2022-10-19T11:03:21.005Z,51876.45
2022-10-19T11:05:53.654Z,51863.60
2022-10-19T11:08:26.412Z,51855.56
2022-10-19T11:11:00.657Z,51841.90
2022-10-19T11:13:34.769Z,51846.72
2022-10-19T11:16:08.389Z,51851.54
2022-10-19T11:18:42.591Z,51855.96
2022-10-19T11:21:16.291Z,51835.47
2022-10-19T11:24:01.650Z,51847.52
2022-10-19T11:26:58.281Z,51837.48
2022-10-19T11:29:39.844Z,51827.43
2022-10-19T11:32:16.014Z,51829.44
2022-10-19T11:34:54.611Z,51821.80
2022-10-19T11:37:29.656Z,51831.85
2022-10-19T11:40:07.111Z,51816.18
2022-10-19T11:45:28.932Z,51810.55
2022-10-19T11:48:15.256Z,51791.67
2022-10-19T11:50:54.194Z,51792.48
2022-10-19T11:53:35.520Z,51791.27
2022-10-19T11:56:10.642Z,51792.48
2022-10-19T11:58:49.716Z,51797.70
2022-10-19T12:01:27.811Z,51786.45
2022-10-19T12:04:05.285Z,51758.72
2022-10-19T12:06:41.141Z,51761.13
2022-10-19T12:09:22.910Z,51756.71
2022-10-19T12:12:03.677Z,51768.37
2022-10-19T12:14:35.778Z,51753.09
2022-10-19T12:17:09.818Z,51754.30
2022-10-19T12:19:44.074Z,51764.74
2022-10-19T12:22:18.954Z,51743.45
2022-10-19T12:24:51.162Z,51745.05
2022-10-19T12:27:25.111Z,51766.76
2022-10-19T12:30:06.424Z,51757.51
2022-10-19T12:32:44.686Z,51783.63
2022-10-19T12:35:26.189Z,51778.01
2022-10-19T12:37:59.198Z,51791.27
2022-10-19T12:40:34.024Z,51780.82
2022-10-19T12:43:09.186Z,51780.02
2022-10-19T12:45:41.908Z,51782.83
2022-10-19T12:48:21.612Z,51782.43
2022-10-19T12:51:19.832Z,51779.62
2022-10-19T12:53:51.635Z,51798.50
2022-10-19T12:56:26.637Z,51805.73
2022-10-19T12:59:01.716Z,51823.01
2022-10-19T13:01:44.813Z,51815.38
2022-10-19T13:04:17.578Z,51831.04
2022-10-19T13:06:49.804Z,51823.41
2022-10-19T13:09:28.184Z,51846.72
2022-10-19T13:12:30.354Z,51843.91
2022-10-19T13:15:02.228Z,51852.34
2022-10-19T13:17:46.542Z,51843.10
2022-10-19T13:20:51.456Z,51845.51
2022-10-19T13:23:43.146Z,51854.75
2022-10-19T13:26:35.975Z,51870.02
2022-10-19T13:29:27.387Z,51867.21
2022-10-19T13:31:58.906Z,51872.44
2022-10-19T13:34:30.590Z,51861.59
2022-10-19T13:37:03.847Z,51878.46
2022-10-19T13:39:36.262Z,51896.55
2022-10-19T13:42:13.728Z,51905.79
2022-10-19T13:44:47.467Z,51904.98
2022-10-19T13:50:37.948Z,51901.77
2022-10-19T13:53:27.157Z,51906.59
2022-10-19T13:56:19.006Z,51934.71
2022-10-19T14:02:20.734Z,51928.29
2022-10-19T14:04:57.540Z,51917.04
2022-10-19T14:07:31.420Z,51928.29
2022-10-19T14:10:14.532Z,51938.74
2022-10-19T14:12:46.393Z,51944.36
2022-10-19T14:15:25.588Z,51923.87
2022-10-19T14:18:00.261Z,51946.77
2022-10-19T14:20:41.249Z,51934.72
2022-10-19T14:23:22.747Z,51953.21
2022-10-19T14:25:56.529Z,51933.51
2022-10-19T14:28:28.187Z,51942.76
2022-10-19T14:30:58.987Z,51954.81
2022-10-19T14:33:31.758Z,51964.05
2022-10-19T14:36:03.712Z,51949.59
2022-10-19T14:38:37.343Z,51962.85
2022-10-19T14:41:18.907Z,51962.45
2022-10-19T14:43:50.562Z,51949.59
2022-10-19T14:46:22.111Z,51979.73
2022-10-19T14:48:53.827Z,51968.47
2022-10-19T14:51:31.796Z,51966.46
2022-10-19T14:54:05.594Z,51973.30
2022-10-19T14:56:40.857Z,51976.91
2022-10-19T14:59:20.142Z,51969.68
2022-10-19T15:01:54.076Z,51968.88
2022-10-19T15:04:26.711Z,51963.65
2022-10-19T15:06:58.179Z,51978.52
2022-10-19T15:09:37.250Z,51967.67
2022-10-19T15:12:10.257Z,51977.71
2022-10-19T15:14:41.684Z,51983.74
2022-10-19T15:17:26.507Z,51974.90
2022-10-19T15:20:00.480Z,51972.49
2022-10-19T15:22:42.098Z,51971.69
2022-10-19T15:25:37.527Z,51985.35
2022-10-19T15:28:39.029Z,51984.14
2022-10-19T15:31:19.251Z,51987.76
2022-10-19T15:33:52.539Z,51987.36
2022-10-19T15:36:25.152Z,51972.09
2022-10-19T15:39:17.875Z,51999.41
2022-10-19T15:41:56.359Z,51992.18
2022-10-19T15:44:46.876Z,51978.92
2022-10-19T15:47:23.696Z,51987.76
2022-10-19T15:49:57.213Z,51987.36
2022-10-19T15:52:29.333Z,51983.74
2022-10-19T15:55:01.377Z,51975.30
2022-10-19T15:57:34.739Z,51981.33
2022-10-19T16:00:12.593Z,52005.85
2022-10-19T16:02:44.613Z,51988.56
2022-10-19T16:05:16.715Z,51989.77
2022-10-19T16:07:48.218Z,51998.21
2022-10-19T16:10:21.832Z,51987.76
2022-10-19T16:12:53.234Z,51987.36
2022-10-19T16:15:25.348Z,51987.36
2022-10-19T16:17:58.946Z,52005.84
2022-10-19T16:20:31.532Z,52003.03
2022-10-19T16:23:02.964Z,51991.78
2022-10-19T16:25:34.596Z,51987.36
2022-10-19T16:28:06.285Z,52008.26
2022-10-19T16:30:35.988Z,52003.83
2022-10-19T16:33:07.453Z,52009.46
2022-10-19T16:35:40.017Z,51997.00
2022-10-19T16:38:11.443Z,52027.94
2022-10-19T16:40:42.956Z,52025.13
2022-10-19T16:43:14.461Z,52019.10
2022-10-19T16:45:46.721Z,52027.14
2022-10-19T16:48:23.062Z,52022.72
2022-10-19T16:51:21.516Z,52023.52
2022-10-19T16:53:54.673Z,52030.76
2022-10-19T16:56:27.290Z,52038.79
2022-10-19T16:59:00.066Z,52042.01
2022-10-19T17:01:31.775Z,52023.12
2022-10-19T17:04:01.551Z,52032.37
2022-10-19T17:06:33.776Z,52025.13
2022-10-19T17:11:57.075Z,52057.28
2022-10-19T17:14:28.563Z,52053.66
2022-10-19T17:16:59.957Z,52049.64
2022-10-19T17:19:31.407Z,52052.46
2022-10-19T17:22:03.989Z,52064.91
2022-10-19T17:24:37.525Z,52056.07
2022-10-19T17:27:09.040Z,52067.73
2022-10-19T17:29:40.494Z,52074.56
2022-10-19T17:32:11.974Z,52058.48
2022-10-19T17:34:43.607Z,52064.91
2022-10-19T17:37:15.279Z,52059.69
2022-10-19T17:39:46.834Z,52064.51
2022-10-19T17:42:18.414Z,52058.08
2022-10-19T17:44:49.811Z,52071.74
2022-10-19T17:47:21.227Z,52060.09
2022-10-19T17:49:52.681Z,52073.35
2022-10-19T17:52:24.496Z,52083.00
2022-10-19T17:55:11.817Z,52085.81
2022-10-19T17:57:44.545Z,52086.61
2022-10-19T18:00:17.508Z,52070.95
2022-10-19T18:02:49.930Z,52089.02
2022-10-19T18:05:21.555Z,52078.57
2022-10-19T18:07:54.086Z,52085.41
2022-10-19T18:10:25.687Z,52078.57
2022-10-19T18:12:57.110Z,52091.84
2022-10-19T18:15:28.596Z,52112.34
2022-10-19T18:18:01.163Z,52082.20
2022-10-19T18:20:33.009Z,52086.21
2022-10-19T18:23:03.006Z,52091.44
2022-10-19T18:25:52.948Z,52098.67
2022-10-19T18:28:25.866Z,52104.29
2022-10-19T18:30:55.778Z,52100.28
2022-10-19T18:33:30.285Z,52100.28
2022-10-19T18:36:03.953Z,52104.70
2022-10-19T18:38:35.799Z,52102.69
2022-10-19T18:41:08.048Z,52097.06
2022-10-19T18:43:39.512Z,52103.09
2022-10-19T18:46:11.122Z,52104.70
2022-10-19T18:48:42.933Z,52095.86
2022-10-19T18:51:13.314Z,52099.48
2022-10-19T18:53:44.934Z,52097.06
2022-10-19T18:56:17.341Z,52104.29
2022-10-19T18:58:48.961Z,52106.30
2022-10-19T19:01:19.856Z,52115.95
2022-10-19T19:03:53.766Z,52123.99
2022-10-19T19:06:26.508Z,52118.76
2022-10-19T19:08:58.656Z,52114.74
2022-10-19T19:11:34.275Z,52122.38
2022-10-19T19:14:09.955Z,52125.19
2022-10-19T19:16:41.937Z,52131.22
2022-10-19T19:19:13.977Z,52134.04
2022-10-19T19:21:45.777Z,52099.07
2022-10-19T19:24:15.881Z,52123.18
2022-10-19T19:26:49.670Z,52119.16
2022-10-19T19:29:21.280Z,52132.02
2022-10-19T19:31:53.703Z,52118.76
2022-10-19T19:34:25.167Z,52127.20
2022-10-19T19:36:56.697Z,52138.45
2022-10-19T19:39:28.455Z,52136.04
2022-10-19T19:41:58.158Z,52133.23
2022-10-19T19:44:30.054Z,52132.83
2022-10-19T19:47:02.127Z,52118.36
2022-10-19T19:49:33.639Z,52119.57
2022-10-19T19:52:05.025Z,52139.26
2022-10-19T19:54:36.729Z,52138.05
2022-10-19T19:57:08.060Z,52130.41
2022-10-19T19:59:39.676Z,52132.02
2022-10-19T20:02:12.041Z,52142.47
2022-10-19T20:04:43.664Z,52125.59
2022-10-19T20:07:15.216Z,52155.33
2022-10-19T20:09:46.525Z,52141.66
2022-10-19T20:12:17.976Z,52142.87
2022-10-19T20:14:49.473Z,52153.32
2022-10-19T20:17:23.970Z,52136.04
2022-10-19T20:19:55.440Z,52140.06
2022-10-19T20:22:26.985Z,52149.30
2022-10-19T20:24:58.480Z,52149.30
2022-10-19T20:27:29.972Z,52137.65
2022-10-19T20:30:01.424Z,52150.91
2022-10-19T20:32:33.480Z,52150.11
2022-10-19T20:35:05.584Z,52131.22
2022-10-19T20:37:37.052Z,52156.13
2022-10-19T20:40:11.081Z,52138.86
2022-10-19T20:42:42.621Z,52157.34
2022-10-19T20:45:14.408Z,52156.94
2022-10-19T20:47:44.187Z,52124.79
2022-10-19T20:50:18.117Z,52131.62
2022-10-19T20:52:52.325Z,52140.06
2022-10-19T20:55:23.772Z,52144.48
2022-10-19T20:57:55.211Z,52158.95
2022-10-19T21:00:26.953Z,52152.52
2022-10-19T21:02:56.658Z,52152.12
2022-10-19T21:05:28.245Z,52153.72
2022-10-19T21:07:59.925Z,52177.84
2022-10-19T21:10:31.789Z,52149.70
2022-10-19T21:13:03.205Z,52164.98
2022-10-19T21:15:34.610Z,52138.05
2022-10-19T21:18:06.184Z,52145.69
2022-10-19T21:20:37.670Z,52143.68
2022-10-19T21:23:09.310Z,52151.71
2022-10-19T21:25:40.805Z,52147.70
2022-10-19T21:28:12.322Z,52140.06
2022-10-19T21:30:43.661Z,52156.13
2022-10-19T21:33:15.349Z,52157.74
2022-10-19T21:35:45.279Z,52138.45
2022-10-19T21:38:16.981Z,52156.94
2022-10-19T21:40:48.480Z,52158.14
2022-10-19T21:43:20.312Z,52144.48
2022-10-19T21:45:50.116Z,52138.05
2022-10-19T21:48:21.481Z,52150.91
2022-10-19T21:50:53.145Z,52144.08
2022-10-19T21:53:23.792Z,52150.51
2022-10-19T21:55:55.406Z,52163.37
2022-10-19T21:58:26.791Z,52154.13
2022-10-19T22:01:04.725Z,52148.50
2022-10-19T22:03:36.556Z,52151.31
2022-10-19T22:06:08.164Z,52156.94
2022-10-19T22:08:39.589Z,52152.52
2022-10-19T22:11:12.097Z,52156.13
2022-10-19T22:13:43.443Z,52160.55
2022-10-19T22:16:15.702Z,52144.48
2022-10-19T22:18:47.175Z,52173.01
2022-10-19T22:21:20.615Z,52158.54
2022-10-19T22:23:54.866Z,52143.68
2022-10-19T22:26:27.180Z,52159.75
2022-10-19T22:28:59.358Z,52144.88
2022-10-19T22:31:31.297Z,52166.58
2022-10-19T22:34:03.463Z,52160.55
2022-10-19T22:36:34.979Z,52163.77
2022-10-19T22:39:06.599Z,52160.96
2022-10-19T22:41:38.196Z,52164.17
2022-10-19T22:44:09.649Z,52158.54
2022-10-19T22:46:41.247Z,52161.36
2022-10-19T22:49:12.820Z,52167.79
2022-10-19T22:51:44.397Z,52155.33
2022-10-19T22:54:14.411Z,52173.82
2022-10-19T22:56:45.926Z,52179.84
2022-10-19T22:59:17.634Z,52169.80
2022-10-19T23:01:49.160Z,52163.77
2022-10-19T23:04:21.458Z,52164.98
2022-10-19T23:06:52.971Z,52164.98
2022-10-19T23:09:24.867Z,52166.18
2022-10-19T23:11:54.647Z,52173.81
2022-10-19T23:14:26.705Z,52187.88
2022-10-19T23:16:56.421Z,52176.23
2022-10-19T23:19:27.898Z,52178.24
2022-10-19T23:21:59.323Z,52172.21
2022-10-19T23:24:30.716Z,52176.23
2022-10-19T23:27:02.421Z,52185.47
2022-10-19T23:29:32.228Z,52183.46
2022-10-19T23:32:03.844Z,52183.06
2022-10-19T23:37:10.204Z,52185.47
2022-10-19T23:39:40.074Z,52185.87
2022-10-19T23:42:11.756Z,52190.70
2022-10-19T23:44:43.253Z,52188.68
2022-10-19T23:47:14.903Z,52180.24
2022-10-19T23:49:44.681Z,52197.13
2022-10-19T23:52:16.338Z,52171.80
2022-10-19T23:54:47.838Z,52194.31
2022-10-19T23:57:19.414Z,52177.43
2022-10-19T23:59:50.799Z,52191.49
